createdAt,value
2023-04-08T00:00:24.403Z,7.07
2023-04-08T00:02:53.873Z,7.20
2023-04-08T00:05:21.992Z,7.60
2023-04-08T00:07:49.967Z,8.30
2023-04-08T00:10:18.018Z,7.60
2023-04-08T00:12:46.032Z,7.77
2023-04-08T00:15:13.958Z,8.00
2023-04-08T00:17:42.929Z,7.43
2023-04-08T00:20:12.762Z,8.10
2023-04-08T00:22:40.772Z,7.10
2023-04-08T00:25:09.796Z,7.33
2023-04-08T00:27:37.740Z,7.10
2023-04-08T00:30:06.813Z,7.47
2023-04-08T00:32:34.811Z,6.93
2023-04-08T00:35:02.777Z,7.17
2023-04-08T00:37:32.817Z,7.40
2023-04-08T00:40:00.754Z,7.07
2023-04-08T00:42:30.782Z,8.00
2023-04-08T00:44:58.760Z,7.37
2023-04-08T00:47:26.933Z,7.63
2023-04-08T00:49:54.981Z,7.83
2023-04-08T00:52:23.014Z,7.07
2023-04-08T00:54:52.398Z,6.77
2023-04-08T00:57:20.409Z,7.07
2023-04-08T00:59:48.352Z,7.60
2023-04-08T01:02:23.139Z,7.50
2023-04-08T01:04:57.108Z,7.53
2023-04-08T01:07:29.370Z,8.60
2023-04-08T01:10:03.142Z,7.70
2023-04-08T01:12:33.023Z,8.10
2023-04-08T01:15:04.696Z,7.90
2023-04-08T01:17:33.736Z,7.93
2023-04-08T01:20:04.470Z,8.63
2023-04-08T01:22:42.656Z,7.07
2023-04-08T01:25:17.819Z,8.07
2023-04-08T01:27:49.538Z,7.17
2023-04-08T01:30:20.437Z,8.07
2023-04-08T01:32:49.138Z,7.80
2023-04-08T01:35:17.494Z,8.20
2023-04-08T01:37:48.032Z,7.43
2023-04-08T01:40:17.957Z,7.83
2023-04-08T01:42:49.636Z,7.83
2023-04-08T01:45:18.631Z,8.30
2023-04-08T01:47:48.403Z,7.13
2023-04-08T01:50:17.590Z,9.30
2023-04-08T01:52:46.607Z,7.67
2023-04-08T01:55:14.858Z,7.27
2023-04-08T01:57:49.029Z,7.80
2023-04-08T02:00:22.171Z,7.17
2023-04-08T02:02:52.017Z,7.90
2023-04-08T02:05:20.372Z,8.13
2023-04-08T02:07:48.963Z,9.00
2023-04-08T02:10:17.491Z,7.83
2023-04-08T02:12:45.844Z,8.23
2023-04-08T02:15:14.975Z,8.90
2023-04-08T02:17:47.459Z,7.00
2023-04-08T02:20:20.278Z,8.20
2023-04-08T02:22:54.487Z,8.53
2023-04-08T02:25:25.954Z,8.13
2023-04-08T02:27:55.772Z,7.70
2023-04-08T02:30:24.733Z,7.50
2023-04-08T02:32:55.925Z,8.80
2023-04-08T02:35:24.700Z,7.43
2023-04-08T02:37:53.465Z,8.23
2023-04-08T02:40:26.313Z,8.67
2023-04-08T02:42:55.078Z,8.00
2023-04-08T02:45:23.496Z,8.40
2023-04-08T02:47:51.556Z,8.63
2023-04-08T02:50:20.906Z,8.47
2023-04-08T02:52:48.834Z,7.63
2023-04-08T02:55:16.821Z,9.93
2023-04-08T02:57:44.925Z,9.80
2023-04-08T03:00:14.276Z,8.87
2023-04-08T03:02:42.553Z,8.53
2023-04-08T03:05:11.264Z,7.80
2023-04-08T03:07:40.622Z,7.93
2023-04-08T03:10:09.694Z,8.03
2023-04-08T03:12:37.700Z,7.83
2023-04-08T03:15:06.457Z,8.30
2023-04-08T03:17:34.760Z,7.47
2023-04-08T03:20:04.842Z,9.40
2023-04-08T03:22:32.990Z,8.07
2023-04-08T03:25:02.264Z,7.67
2023-04-08T03:27:30.409Z,8.07
2023-04-08T03:29:58.847Z,7.67
2023-04-08T03:32:26.929Z,7.17
2023-04-08T03:34:54.873Z,7.90
2023-04-08T03:37:22.795Z,7.33
2023-04-08T03:39:50.763Z,7.67
2023-04-08T03:42:20.055Z,7.40
2023-04-08T03:44:48.065Z,6.97
2023-04-08T03:47:15.970Z,7.37
2023-04-08T03:49:43.935Z,7.43
2023-04-08T03:52:11.807Z,7.97
2023-04-08T03:54:39.752Z,7.57
2023-04-08T03:57:07.686Z,8.47
2023-04-08T03:59:37.573Z,7.90
2023-04-08T04:02:05.652Z,7.47
2023-04-08T04:04:33.889Z,7.33
2023-04-08T04:07:01.836Z,7.10
2023-04-08T04:09:29.805Z,8.20
2023-04-08T04:11:57.810Z,8.67
2023-04-08T04:14:25.853Z,8.53
2023-04-08T04:16:55.129Z,7.60
2023-04-08T04:19:23.104Z,8.30
2023-04-08T04:21:51.367Z,7.73
2023-04-08T04:24:19.348Z,7.70
2023-04-08T04:26:47.516Z,7.33
2023-04-08T04:29:15.522Z,7.37
2023-04-08T04:31:43.553Z,6.90
2023-04-08T04:34:12.901Z,7.40
2023-04-08T04:36:40.894Z,7.53
2023-04-08T04:39:08.798Z,7.47
2023-04-08T04:41:40.525Z,7.87
2023-04-08T04:44:08.482Z,7.30
2023-04-08T04:46:36.414Z,6.97
2023-04-08T04:49:04.331Z,8.17
2023-04-08T04:51:34.227Z,7.10
2023-04-08T04:54:02.257Z,9.67
2023-04-08T04:56:30.320Z,11.03
2023-04-08T04:58:58.220Z,7.70
2023-04-08T05:01:26.203Z,7.93
2023-04-08T05:03:54.147Z,9.37
2023-04-08T05:06:22.100Z,9.33
2023-04-08T05:08:52.032Z,9.43
2023-04-08T05:11:21.843Z,7.13
2023-04-08T05:13:49.920Z,8.17
2023-04-08T05:16:18.033Z,8.80
2023-04-08T05:18:46.246Z,8.10
2023-04-08T05:21:14.217Z,8.37
2023-04-08T05:23:42.191Z,8.07
2023-04-08T05:26:11.530Z,7.30
2023-04-08T05:28:39.465Z,7.57
2023-04-08T05:31:07.508Z,7.90
2023-04-08T05:33:35.409Z,8.03
2023-04-08T05:36:03.382Z,7.07
2023-04-08T05:38:31.424Z,8.73
2023-04-08T05:40:59.313Z,7.77
2023-04-08T05:43:28.630Z,7.53
2023-04-08T05:45:56.505Z,7.27
2023-04-08T05:48:24.436Z,7.73
2023-04-08T05:50:52.443Z,7.93
2023-04-08T05:53:20.524Z,8.50
2023-04-08T05:55:48.413Z,7.70
2023-04-08T05:58:16.522Z,9.23
2023-04-08T06:00:46.035Z,7.57
2023-04-08T06:03:14.186Z,7.30
2023-04-08T06:05:42.198Z,7.07
2023-04-08T06:08:10.033Z,7.13
2023-04-08T06:10:38.298Z,7.60
2023-04-08T06:13:06.227Z,7.43
2023-04-08T06:15:34.165Z,8.30
2023-04-08T06:18:03.416Z,8.20
2023-04-08T06:20:31.693Z,10.07
2023-04-08T06:22:59.609Z,8.20
2023-04-08T06:25:27.618Z,7.30
2023-04-08T06:27:55.747Z,7.87
2023-04-08T06:30:23.949Z,7.70
2023-04-08T06:32:51.873Z,8.83
2023-04-08T06:35:21.328Z,6.90
2023-04-08T06:37:49.342Z,8.17
2023-04-08T06:40:17.408Z,8.73
2023-04-08T06:42:45.719Z,9.57
2023-04-08T06:45:13.649Z,8.13
2023-04-08T06:47:41.670Z,8.00
2023-04-08T06:50:10.374Z,7.23
2023-04-08T06:52:39.652Z,7.27
2023-04-08T06:55:08.097Z,8.30
2023-04-08T06:57:35.983Z,7.73
2023-04-08T07:00:04.060Z,7.00
2023-04-08T07:02:32.037Z,11.00
2023-04-08T07:04:59.993Z,7.23
2023-04-08T07:07:27.890Z,6.60
2023-04-08T07:09:57.189Z,7.50
2023-04-08T07:12:25.165Z,7.47
2023-04-08T07:14:53.228Z,7.43
2023-04-08T07:17:21.274Z,7.07
2023-04-08T07:19:49.967Z,6.20
2023-04-08T07:22:18.505Z,6.57
2023-04-08T07:24:49.781Z,7.77
2023-04-08T07:27:19.213Z,5.97
2023-04-08T07:29:47.099Z,6.60
2023-04-08T07:32:14.996Z,6.53
2023-04-08T07:34:42.912Z,6.83
2023-04-08T07:37:10.854Z,6.80
2023-04-08T07:39:38.706Z,7.40
2023-04-08T07:42:06.797Z,6.67
2023-04-08T07:44:36.315Z,7.47
2023-04-08T07:47:04.292Z,5.57
2023-04-08T07:49:32.206Z,6.53
2023-04-08T07:52:00.257Z,5.97
2023-04-08T07:54:28.110Z,6.43
2023-04-08T07:56:57.035Z,7.07
2023-04-08T07:59:25.032Z,6.43
2023-04-08T08:01:54.438Z,6.43
2023-04-08T08:04:25.874Z,6.03
2023-04-08T08:06:54.113Z,6.23
2023-04-08T08:09:22.029Z,6.03
2023-04-08T08:11:49.878Z,6.23
2023-04-08T08:14:17.799Z,6.13
2023-04-08T08:16:45.839Z,6.27
2023-04-08T08:19:15.173Z,5.83
2023-04-08T08:21:43.118Z,5.90
2023-04-08T08:24:11.380Z,6.03
2023-04-08T08:26:39.399Z,5.73
2023-04-08T08:29:08.951Z,5.33
2023-04-08T08:31:36.969Z,6.60
2023-04-08T08:34:04.900Z,6.10
2023-04-08T08:36:34.933Z,6.03
2023-04-08T08:39:03.028Z,5.70
2023-04-08T08:41:36.044Z,5.97
2023-04-08T08:44:06.316Z,5.73
2023-04-08T08:46:35.433Z,5.67
2023-04-08T08:49:03.810Z,5.90
2023-04-08T08:51:32.885Z,5.77
2023-04-08T08:54:05.154Z,5.57
2023-04-08T08:56:35.065Z,6.13
2023-04-08T08:59:02.961Z,5.90
2023-04-08T09:01:32.661Z,6.27
2023-04-08T09:04:12.403Z,6.20
2023-04-08T09:06:41.064Z,5.97
2023-04-08T09:09:13.473Z,6.37
2023-04-08T09:11:43.140Z,5.60
2023-04-08T09:14:21.782Z,6.43
2023-04-08T09:16:49.940Z,6.13
2023-04-08T09:19:17.974Z,7.17
2023-04-08T09:21:46.343Z,5.80
2023-04-08T09:24:32.005Z,7.00
2023-04-08T09:27:00.189Z,5.80
2023-04-08T09:29:32.268Z,5.73
2023-04-08T09:32:03.072Z,6.60
2023-04-08T09:34:34.270Z,6.17
2023-04-08T09:37:02.491Z,7.07
2023-04-08T09:39:32.419Z,7.60
2023-04-08T09:42:08.283Z,5.87
2023-04-08T09:44:38.941Z,6.13
2023-04-08T09:47:11.351Z,7.27
2023-04-08T09:49:45.009Z,6.73
2023-04-08T09:52:16.791Z,5.67
2023-04-08T09:54:55.896Z,7.37
2023-04-08T09:57:33.651Z,6.20
2023-04-08T10:00:06.654Z,6.10
2023-04-08T10:02:42.587Z,6.70
2023-04-08T10:05:14.641Z,5.87
2023-04-08T10:07:43.528Z,8.63
2023-04-08T10:10:13.178Z,7.27
2023-04-08T10:12:41.514Z,6.00
2023-04-08T10:15:26.974Z,5.97
2023-04-08T10:17:55.651Z,6.73
2023-04-08T10:20:42.559Z,6.77
2023-04-08T10:23:11.562Z,6.57
2023-04-08T10:25:42.540Z,5.77
2023-04-08T10:28:27.238Z,7.07
2023-04-08T10:30:56.694Z,6.73
2023-04-08T10:33:32.959Z,5.90
2023-04-08T10:36:04.500Z,5.80
2023-04-08T10:38:33.256Z,5.77
2023-04-08T10:41:02.625Z,5.73
2023-04-08T10:43:34.786Z,6.47
2023-04-08T10:46:02.838Z,7.30
2023-04-08T10:48:30.966Z,6.47
2023-04-08T10:51:00.242Z,5.67
2023-04-08T10:53:29.299Z,6.10
2023-04-08T10:56:07.800Z,6.67
2023-04-08T10:58:36.647Z,6.03
2023-04-08T11:01:06.825Z,5.77
2023-04-08T11:03:35.234Z,5.93
2023-04-08T11:06:03.963Z,7.00
2023-04-08T11:08:32.463Z,6.00
2023-04-08T11:11:01.661Z,5.80
2023-04-08T11:13:31.823Z,5.80
2023-04-08T11:16:00.693Z,5.53
2023-04-08T11:18:29.451Z,6.17
2023-04-08T11:20:59.641Z,5.83
2023-04-08T11:23:28.360Z,5.70
2023-04-08T11:25:56.718Z,6.73
2023-04-08T11:28:24.822Z,6.20
2023-04-08T11:30:55.932Z,6.33
2023-04-08T11:33:26.428Z,6.10
2023-04-08T11:35:55.058Z,7.60
2023-04-08T11:38:24.645Z,6.17
2023-04-08T11:40:55.639Z,5.77
2023-04-08T11:43:23.821Z,6.17
2023-04-08T11:45:53.462Z,6.60
2023-04-08T11:48:21.442Z,5.07
2023-04-08T11:50:51.694Z,5.60
2023-04-08T11:53:20.809Z,6.13
2023-04-08T11:55:49.615Z,6.30
2023-04-08T11:58:17.673Z,5.87
2023-04-08T12:00:46.092Z,6.07
2023-04-08T12:03:15.864Z,6.10
2023-04-08T12:05:43.768Z,5.93
2023-04-08T12:08:11.760Z,6.27
2023-04-08T12:10:39.746Z,6.00
2023-04-08T12:13:07.808Z,5.93
2023-04-08T12:15:35.840Z,5.87
2023-04-08T12:18:03.814Z,5.83
2023-04-08T12:20:33.050Z,6.00
2023-04-08T12:23:01.008Z,5.47
2023-04-08T12:25:29.199Z,6.73
2023-04-08T12:27:57.124Z,5.73
2023-04-08T12:30:25.018Z,6.13
2023-04-08T12:32:55.304Z,6.30
2023-04-08T12:35:23.387Z,5.83
2023-04-08T12:37:52.662Z,5.83
2023-04-08T12:40:20.951Z,5.80
2023-04-08T12:42:48.898Z,6.67
2023-04-08T12:45:16.905Z,6.40
2023-04-08T12:47:44.918Z,5.80
2023-04-08T12:50:12.908Z,5.83
2023-04-08T12:52:40.821Z,6.33
2023-04-08T12:55:11.307Z,6.93
2023-04-08T12:57:39.176Z,5.80
2023-04-08T13:00:08.331Z,5.80
2023-04-08T13:02:36.276Z,6.37
2023-04-08T13:05:04.317Z,5.93
2023-04-08T13:07:33.572Z,6.00
2023-04-08T13:10:01.718Z,5.53
2023-04-08T13:12:32.143Z,6.00
2023-04-08T13:15:00.324Z,6.27
2023-04-08T13:17:28.465Z,6.30
2023-04-08T13:19:56.360Z,6.27
2023-04-08T13:22:24.385Z,5.87
2023-04-08T13:24:52.462Z,6.90
2023-04-08T13:27:20.652Z,6.03
2023-04-08T13:29:49.968Z,6.60
2023-04-08T13:32:17.946Z,7.00
2023-04-08T13:34:46.245Z,7.27
2023-04-08T13:37:14.209Z,6.57
2023-04-08T13:39:42.147Z,6.93
2023-04-08T13:42:10.074Z,6.57
2023-04-08T13:44:38.011Z,6.43
2023-04-08T13:47:07.352Z,6.07
2023-04-08T13:49:35.369Z,6.10
2023-04-08T13:52:03.289Z,5.37
2023-04-08T13:54:31.250Z,6.63
2023-04-08T13:56:59.171Z,7.10
2023-04-08T13:59:27.120Z,7.50
2023-04-08T14:01:55.395Z,7.10
2023-04-08T14:04:25.177Z,5.83
2023-04-08T14:06:53.320Z,6.67
2023-04-08T14:09:21.863Z,6.37
2023-04-08T14:11:49.869Z,6.17
2023-04-08T14:14:17.848Z,5.77
2023-04-08T14:16:46.505Z,7.43
2023-04-08T14:19:14.960Z,6.03
2023-04-08T14:21:44.372Z,6.33
2023-04-08T14:24:12.414Z,6.50
2023-04-08T14:26:40.993Z,5.70
2023-04-08T14:29:09.316Z,6.30
2023-04-08T14:31:37.391Z,6.10
2023-04-08T14:34:05.476Z,6.60
2023-04-08T14:36:33.803Z,5.83
2023-04-08T14:39:03.752Z,6.43
2023-04-08T14:41:31.754Z,6.33
2023-04-08T14:44:00.026Z,6.10
2023-04-08T14:46:29.058Z,6.70
2023-04-08T14:48:57.284Z,5.40
2023-04-08T14:51:25.337Z,5.93
2023-04-08T14:53:53.326Z,5.90
2023-04-08T14:56:22.790Z,6.53
2023-04-08T14:58:51.202Z,5.87
2023-04-08T15:01:19.475Z,5.67
2023-04-08T15:03:47.699Z,6.10
2023-04-08T15:06:17.838Z,6.57
2023-04-08T15:08:46.559Z,6.00
2023-04-08T15:11:14.552Z,5.63
2023-04-08T15:13:43.981Z,6.13
2023-04-08T15:16:12.053Z,5.50
2023-04-08T15:18:40.313Z,5.20
2023-04-08T15:21:08.370Z,5.73
2023-04-08T15:23:36.696Z,6.37
2023-04-08T15:26:04.725Z,5.87
2023-04-08T15:28:33.153Z,5.37
2023-04-08T15:31:02.885Z,6.03
2023-04-08T15:33:30.866Z,5.77
2023-04-08T15:36:03.262Z,7.00
2023-04-08T15:38:33.692Z,5.70
2023-04-08T15:41:01.890Z,6.77
2023-04-08T15:43:29.933Z,5.60
2023-04-08T15:45:57.918Z,5.63
2023-04-08T15:48:27.386Z,6.37
2023-04-08T15:50:55.363Z,6.17
2023-04-08T15:53:23.397Z,5.93
2023-04-08T15:55:51.616Z,6.33
2023-04-08T15:58:19.500Z,7.07
2023-04-08T16:00:48.821Z,5.83
2023-04-08T16:03:16.855Z,6.67
2023-04-08T16:05:46.395Z,6.77
2023-04-08T16:08:14.344Z,6.87
2023-04-08T16:10:42.348Z,5.93
2023-04-08T16:13:10.282Z,5.70
2023-04-08T16:15:38.289Z,6.43
2023-04-08T16:18:07.941Z,6.07
2023-04-08T16:20:38.396Z,7.50
2023-04-08T16:23:07.757Z,7.00
2023-04-08T16:25:35.807Z,5.90
2023-04-08T16:28:03.915Z,6.07
2023-04-08T16:30:31.984Z,6.03
2023-04-08T16:33:00.389Z,6.40
2023-04-08T16:35:28.606Z,6.07
2023-04-08T16:37:56.802Z,6.40
2023-04-08T16:40:26.288Z,6.20
2023-04-08T16:42:54.595Z,6.97
2023-04-08T16:45:22.646Z,6.87
2023-04-08T16:47:50.662Z,5.93
2023-04-08T16:50:18.825Z,6.20
2023-04-08T16:52:49.544Z,5.80
2023-04-08T16:55:17.822Z,6.47
2023-04-08T16:57:47.719Z,5.70
2023-04-08T17:00:18.069Z,5.23
2023-04-08T17:02:47.590Z,5.83
2023-04-08T17:05:15.825Z,6.17
2023-04-08T17:07:43.769Z,5.53
2023-04-08T17:10:12.079Z,6.60
2023-04-08T17:12:40.051Z,6.10
2023-04-08T17:15:10.954Z,7.00
2023-04-08T17:17:39.006Z,6.73
2023-04-08T17:20:08.563Z,6.03
2023-04-08T17:22:37.040Z,5.80
2023-04-08T17:25:05.795Z,5.90
2023-04-08T17:27:33.774Z,5.93
2023-04-08T17:30:01.796Z,5.47
2023-04-08T17:32:31.437Z,6.10
2023-04-08T17:34:59.392Z,6.03
2023-04-08T17:37:27.321Z,6.67
2023-04-08T17:39:55.295Z,6.43
2023-04-08T17:42:23.778Z,6.00
2023-04-08T17:44:52.869Z,6.93
2023-04-08T17:47:21.079Z,6.77
2023-04-08T17:49:50.431Z,6.07
2023-04-08T17:52:18.932Z,5.57
2023-04-08T17:54:46.900Z,6.37
2023-04-08T17:57:14.798Z,5.97
2023-04-08T17:59:42.813Z,6.37
2023-04-08T18:02:11.037Z,6.93
2023-04-08T18:04:39.089Z,7.03
2023-04-08T18:07:08.439Z,5.90
2023-04-08T18:09:36.390Z,5.67
2023-04-08T18:12:04.424Z,5.87
2023-04-08T18:14:32.403Z,7.13
2023-04-08T18:17:00.510Z,6.07
2023-04-08T18:19:28.461Z,5.70
2023-04-08T18:21:56.535Z,6.50
2023-04-08T18:24:26.058Z,6.57
2023-04-08T18:27:03.412Z,6.77
2023-04-08T18:29:32.160Z,6.60
2023-04-08T18:32:00.069Z,6.57
2023-04-08T18:34:28.137Z,5.97
2023-04-08T18:36:56.310Z,6.47
2023-04-08T18:39:25.677Z,6.97
2023-04-08T18:41:53.557Z,7.10
2023-04-08T18:44:21.549Z,6.97
2023-04-08T18:46:49.532Z,6.97
2023-04-08T18:49:17.517Z,7.43
2023-04-08T18:51:59.044Z,6.77
2023-04-08T18:54:30.908Z,6.13
2023-04-08T18:56:58.953Z,6.07
2023-04-08T18:59:28.460Z,7.80
2023-04-08T19:01:56.502Z,7.10
2023-04-08T19:04:24.698Z,7.77
2023-04-08T19:06:52.697Z,9.13
2023-04-08T19:09:20.699Z,7.47
2023-04-08T19:11:50.065Z,7.60
2023-04-08T19:14:18.477Z,7.60
2023-04-08T19:16:46.404Z,6.97
2023-04-08T19:19:14.656Z,6.60
2023-04-08T19:21:42.617Z,7.33
2023-04-08T19:24:10.687Z,5.97
2023-04-08T19:26:38.649Z,6.77
2023-04-08T19:29:09.422Z,6.40
2023-04-08T19:31:37.829Z,6.63
2023-04-08T19:34:06.053Z,6.67
2023-04-08T19:36:34.065Z,6.00
2023-04-08T19:39:03.567Z,5.87
2023-04-08T19:41:31.598Z,6.13
2023-04-08T19:43:59.473Z,6.77
2023-04-08T19:46:29.609Z,7.17
2023-04-08T19:48:59.021Z,6.57
2023-04-08T19:51:27.468Z,6.77
2023-04-08T19:53:55.464Z,6.77
2023-04-08T19:56:23.382Z,7.13
2023-04-08T19:58:51.945Z,6.30
2023-04-08T20:01:20.075Z,6.63
2023-04-08T20:03:52.321Z,7.13
2023-04-08T20:06:21.578Z,7.67
2023-04-08T20:08:50.866Z,7.60
2023-04-08T20:11:18.935Z,6.87
2023-04-08T20:13:47.683Z,7.67
2023-04-08T20:16:15.787Z,7.53
2023-04-08T20:18:43.921Z,7.77
2023-04-08T20:21:14.761Z,7.13
2023-04-08T20:23:44.490Z,5.90
2023-04-08T20:26:13.180Z,7.03
2023-04-08T20:28:41.508Z,7.73
2023-04-08T20:31:10.546Z,7.43
2023-04-08T20:33:43.589Z,7.10
2023-04-08T20:36:13.547Z,7.83
2023-04-08T20:38:42.634Z,7.40
2023-04-08T20:41:11.284Z,7.43
2023-04-08T20:43:39.540Z,10.17
2023-04-08T20:46:07.651Z,6.50
2023-04-08T20:48:36.146Z,7.60
2023-04-08T20:51:04.210Z,7.67
2023-04-08T20:53:34.575Z,6.50
2023-04-08T20:56:03.135Z,7.23
2023-04-08T20:58:31.143Z,7.43
2023-04-08T21:00:59.924Z,8.60
2023-04-08T21:03:28.374Z,7.13
2023-04-08T21:05:56.838Z,7.17
2023-04-08T21:08:24.877Z,9.13
2023-04-08T21:10:54.721Z,7.60
2023-04-08T21:13:22.742Z,8.23
2023-04-08T21:15:50.620Z,9.50
2023-04-08T21:18:18.549Z,7.57
2023-04-08T21:20:46.539Z,7.43
2023-04-08T21:23:15.000Z,8.20
2023-04-08T21:25:43.031Z,9.27
2023-04-08T21:28:12.365Z,8.17
2023-04-08T21:30:40.565Z,7.50
2023-04-08T21:33:08.891Z,8.13
2023-04-08T21:35:36.978Z,7.13
2023-04-08T21:38:04.969Z,7.47
2023-04-08T21:40:33.063Z,7.43
2023-04-08T21:43:01.068Z,9.40
2023-04-08T21:45:30.365Z,6.80
2023-04-08T21:47:58.478Z,7.67
2023-04-08T21:50:26.490Z,8.63
2023-04-08T21:52:54.487Z,7.80
2023-04-08T21:55:23.549Z,8.90
2023-04-08T21:57:51.535Z,12.10
2023-04-08T22:00:19.453Z,11.80
2023-04-08T22:02:48.809Z,10.73
2023-04-08T22:05:17.049Z,8.23
2023-04-08T22:07:45.058Z,6.63
2023-04-08T22:10:13.174Z,7.80
2023-04-08T22:12:41.128Z,7.90
2023-04-08T22:15:10.661Z,7.87
2023-04-08T22:17:38.577Z,8.53
2023-04-08T22:20:09.216Z,6.10
2023-04-08T22:22:37.081Z,7.63
2023-04-08T22:25:05.412Z,9.57
2023-04-08T22:27:33.485Z,10.17
2023-04-08T22:30:01.414Z,8.23
2023-04-08T22:32:29.427Z,7.53
2023-04-08T22:34:57.400Z,7.17
2023-04-08T22:37:26.730Z,7.30
2023-04-08T22:39:54.644Z,7.67
2023-04-08T22:42:22.561Z,9.17
2023-04-08T22:44:50.562Z,8.13
2023-04-08T22:47:18.558Z,7.37
2023-04-08T22:49:46.496Z,8.77
2023-04-08T22:52:14.433Z,7.27
2023-04-08T22:54:43.681Z,8.77
2023-04-08T22:57:11.590Z,7.27
2023-04-08T22:59:39.703Z,7.50
2023-04-08T23:02:07.776Z,7.50
2023-04-08T23:04:35.806Z,8.67
2023-04-08T23:07:03.799Z,8.50
2023-04-08T23:09:31.689Z,9.13
2023-04-08T23:12:01.478Z,9.00
2023-04-08T23:14:29.434Z,8.20
2023-04-08T23:16:57.385Z,7.97
2023-04-08T23:19:25.284Z,7.40
2023-04-08T23:21:53.187Z,8.73
2023-04-08T23:24:21.230Z,7.23
2023-04-08T23:26:49.369Z,7.83
2023-04-08T23:29:18.829Z,7.20
2023-04-08T23:31:46.791Z,8.17
2023-04-08T23:34:14.744Z,7.17
2023-04-08T23:36:42.725Z,6.87
2023-04-08T23:39:10.677Z,7.00
2023-04-08T23:41:38.549Z,7.77
2023-04-08T23:44:06.797Z,7.80
2023-04-08T23:46:36.222Z,7.40
2023-04-08T23:49:04.178Z,7.37
2023-04-08T23:51:32.225Z,7.40
2023-04-08T23:54:00.132Z,7.50
2023-04-08T23:56:28.048Z,7.40
2023-04-08T23:58:55.947Z,7.40
